Time;durP1;ratioP1;P1;durP2;ratioP2;P2;SDS_P1;SDS_P2;PMS_P1;PMS_P2;Temp;Humidity;BMP_temperature;BMP_pressure;BME280_temperature;BME280_humidity;BME280_pressure;Samples;Min_cycle;Max_cycle;Signal;HPM_P1;HPM_P2
2021/06/01 00:01:43;;;;;;;8.23;4.32;;;15.90;99.90;;;;;;5048183;28;20022;-71
2021/06/01 00:04:10;;;;;;;9.13;4.22;;;15.90;99.90;;;;;;5046773;28;20030;-73
2021/06/01 00:06:36;;;;;;;13.65;4.03;;;15.90;99.90;;;;;;5048472;28;20045;-72
2021/06/01 00:09:04;;;;;;;16.73;5.13;;;15.80;99.90;;;;;;5027890;28;20144;-71
2021/06/01 00:11:30;;;;;;;9.88;4.75;;;15.80;99.90;;;;;;5028272;28;20033;-71
2021/06/01 00:13:56;;;;;;;11.68;3.83;;;15.80;99.90;;;;;;5026915;28;20124;-72
2021/06/01 00:16:22;;;;;;;7.57;4.28;;;15.80;99.90;;;;;;5027957;28;20099;-71
2021/06/01 00:18:47;;;;;;;17.05;5.50;;;15.80;99.90;;;;;;5027856;28;20523;-71
2021/06/01 00:21:13;;;;;;;8.30;4.45;;;15.70;99.90;;;;;;5026746;28;20121;-73
2021/06/01 00:23:39;;;;;;;9.48;4.18;;;15.60;99.90;;;;;;5026808;28;20094;-73
2021/06/01 00:26:07;;;;;;;7.82;3.83;;;15.50;99.90;;;;;;5027729;28;20045;-72
2021/06/01 00:28:34;;;;;;;9.77;4.05;;;15.40;99.90;;;;;;5028319;28;20097;-70
2021/06/01 00:31:00;;;;;;;7.93;4.57;;;15.40;99.90;;;;;;5028082;28;20018;-72
2021/06/01 00:33:25;;;;;;;9.43;4.13;;;15.30;99.90;;;;;;5027402;28;20041;-71
2021/06/01 00:35:51;;;;;;;7.72;3.80;;;15.30;99.90;;;;;;5027724;28;20036;-71
2021/06/01 00:38:17;;;;;;;8.07;4.15;;;15.30;99.90;;;;;;5026780;28;20029;-71
2021/06/01 00:40:42;;;;;;;9.07;4.75;;;15.30;99.90;;;;;;5027420;28;20030;-72
2021/06/01 00:43:08;;;;;;;10.13;4.80;;;15.20;99.90;;;;;;5026561;28;20030;-71
2021/06/01 00:45:34;;;;;;;8.95;4.70;;;15.20;99.90;;;;;;5027666;28;20022;-71
2021/06/01 00:47:59;;;;;;;7.00;3.95;;;15.20;99.90;;;;;;5027491;28;20081;-71
2021/06/01 00:50:27;;;;;;;8.35;4.15;;;15.20;99.90;;;;;;5027697;28;20026;-71
2021/06/01 00:52:54;;;;;;;8.23;4.28;;;15.10;99.90;;;;;;5027128;28;20332;-70
2021/06/01 00:55:20;;;;;;;12.32;4.95;;;15.10;99.90;;;;;;5025884;28;20125;-72
2021/06/01 00:57:46;;;;;;;15.48;5.30;;;15.10;99.90;;;;;;5027230;28;20053;-71
2021/06/01 01:00:40;;;;;;;10.82;5.25;;;15.10;99.90;;;;;;5026084;28;20030;-71
2021/06/01 01:03:00;;;;;;;9.73;5.00;;;15.00;99.90;;;;;;5027176;28;20034;-70
2021/06/01 01:05:32;;;;;;;9.35;4.88;;;14.90;99.90;;;;;;5027287;28;20030;-71
2021/06/01 01:08:21;;;;;;;9.43;5.00;;;14.90;99.90;;;;;;5025381;28;20091;-72
2021/06/01 01:10:51;;;;;;;15.20;5.32;;;14.90;99.90;;;;;;5027025;28;20029;-71
2021/06/01 01:13:18;;;;;;;10.82;5.25;;;14.90;99.90;;;;;;5026970;28;20030;-72
2021/06/01 01:15:49;;;;;;;14.98;5.05;;;14.90;99.90;;;;;;5026550;28;20030;-71
2021/06/01 01:18:19;;;;;;;13.50;6.53;;;14.90;99.90;;;;;;5025936;28;20034;-71
2021/06/01 01:20:49;;;;;;;11.98;5.50;;;14.80;99.90;;;;;;5026916;28;20072;-71
2021/06/01 01:23:17;;;;;;;10.77;4.80;;;14.80;99.90;;;;;;5026594;28;20026;-71
2021/06/01 01:26:00;;;;;;;8.93;5.22;;;14.80;99.90;;;;;;5026719;28;20057;-71
2021/06/01 01:28:34;;;;;;;14.45;6.00;;;14.80;99.90;;;;;;5026449;28;20029;-70
2021/06/01 01:31:07;;;;;;;;;;;14.80;99.90;;;;;;5027217;28;20022;-72
2021/06/01 01:33:39;;;;;;;11.55;4.60;;;14.70;99.90;;;;;;5027058;28;20258;-70
2021/06/01 01:36:08;;;;;;;7.85;5.35;;;14.70;99.90;;;;;;5026654;28;20029;-71
2021/06/01 01:38:35;;;;;;;11.43;5.00;;;14.60;99.90;;;;;;5026539;28;20046;-72
2021/06/01 01:41:07;;;;;;;9.40;5.38;;;14.50;99.90;;;;;;5026975;28;20022;-71
2021/06/01 01:43:34;;;;;;;8.60;4.80;;;14.50;99.90;;;;;;5026420;28;20068;-69
2021/06/01 01:46:10;;;;;;;11.20;5.47;;;14.50;99.90;;;;;;5025182;28;20048;-72
2021/06/01 01:51:24;;;;;;;9.95;4.97;;;14.30;99.90;;;;;;5026272;28;20029;-70
2021/06/01 01:53:53;;;;;;;10.63;4.55;;;14.30;99.90;;;;;;5026346;28;20029;-71
2021/06/01 01:56:21;;;;;;;11.40;5.47;;;14.30;99.90;;;;;;5026174;28;20049;-70
2021/06/01 01:58:51;;;;;;;14.45;5.78;;;14.30;99.90;;;;;;5026055;28;20097;-70
2021/06/01 02:01:18;;;;;;;14.45;5.40;;;14.30;99.90;;;;;;5026227;28;20030;-71
2021/06/01 02:03:44;;;;;;;10.95;5.25;;;14.30;99.90;;;;;;5025860;28;20021;-71
2021/06/01 02:06:10;;;;;;;18.65;5.43;;;14.20;99.90;;;;;;5026027;28;20040;-72
2021/06/01 02:08:43;;;;;;;9.23;4.88;;;14.20;99.90;;;;;;5025973;28;20385;-71
2021/06/01 02:11:09;;;;;;;15.10;6.53;;;14.20;99.90;;;;;;5025353;28;20508;-72
2021/06/01 02:14:03;;;;;;;10.18;5.78;;;14.10;99.90;;;;;;5026005;28;20082;-73
2021/06/01 02:16:31;;;;;;;9.48;5.15;;;14.10;99.90;;;;;;5026373;28;20034;-71
2021/06/01 02:18:56;;;;;;;9.55;4.63;;;14.00;99.90;;;;;;5025711;28;20022;-71
2021/06/01 02:24:31;;;;;;;9.85;4.53;;;13.90;99.90;;;;;;5025562;28;20055;-71
2021/06/01 02:27:21;;;;;;;17.17;6.18;;;13.80;99.90;;;;;;5025528;28;20068;-71
2021/06/01 02:30:01;;;;;;;9.65;4.90;;;13.80;99.90;;;;;;5025783;28;20030;-71
2021/06/01 02:32:29;;;;;;;15.52;5.05;;;13.80;99.90;;;;;;5024103;28;20030;-72
2021/06/01 02:35:00;;;;;;;11.20;5.07;;;13.70;99.90;;;;;;5025641;28;20037;-72
2021/06/01 02:37:26;;;;;;;12.57;5.22;;;13.80;99.90;;;;;;5025319;28;20022;-71
2021/06/01 02:39:53;;;;;;;9.90;4.95;;;13.70;99.90;;;;;;5024905;28;20058;-72
2021/06/01 02:42:19;;;;;;;9.15;5.28;;;13.80;99.90;;;;;;5025427;28;20022;-72
2021/06/01 02:44:44;;;;;;;13.48;5.45;;;13.70;99.90;;;;;;5025110;28;20060;-72
2021/06/01 02:47:11;;;;;;;12.52;5.20;;;13.70;99.90;;;;;;5025539;28;20034;-73
2021/06/01 02:49:37;;;;;;;12.60;4.70;;;13.70;99.90;;;;;;5025554;28;20030;-72
2021/06/01 02:52:03;;;;;;;10.88;5.43;;;13.60;99.90;;;;;;5025203;28;20034;-72
2021/06/01 02:54:29;;;;;;;9.02;4.35;;;13.60;99.90;;;;;;5025079;28;20030;-71
2021/06/01 02:56:55;;;;;;;13.68;5.80;;;13.60;99.90;;;;;;5025305;28;20038;-72
2021/06/01 02:59:21;;;;;;;12.57;4.95;;;13.60;99.90;;;;;;5024885;28;20037;-71
2021/06/01 03:01:50;;;;;;;9.57;5.50;;;13.60;99.90;;;;;;5023931;28;20026;-71
2021/06/01 03:04:16;;;;;;;10.98;4.63;;;13.60;99.90;;;;;;5023652;28;20496;-71
2021/06/01 03:06:43;;;;;;;9.90;4.38;;;13.50;99.90;;;;;;5023607;28;20038;-71
2021/06/01 03:09:09;;;;;;;14.93;5.13;;;13.60;99.90;;;;;;5025037;28;20022;-72
2021/06/01 03:11:35;;;;;;;15.13;5.63;;;13.60;99.90;;;;;;5025113;28;20026;-73
2021/06/01 03:14:00;;;;;;;13.38;6.35;;;13.60;99.90;;;;;;5024828;28;20062;-73
2021/06/01 03:16:27;;;;;;;9.43;5.05;;;13.40;99.90;;;;;;5025019;28;20060;-72
2021/06/01 03:18:52;;;;;;;13.98;5.70;;;13.50;99.90;;;;;;5023417;28;20494;-72
2021/06/01 03:21:18;;;;;;;14.00;5.95;;;13.50;99.90;;;;;;5024432;28;20094;-72
2021/06/01 03:23:46;;;;;;;13.35;6.15;;;13.50;99.90;;;;;;5024568;28;20249;-73
2021/06/01 03:26:12;;;;;;;14.02;6.45;;;13.50;99.90;;;;;;5024324;28;20528;-72
2021/06/01 03:28:38;;;;;;;12.60;6.28;;;13.50;99.90;;;;;;5024700;28;20033;-73
2021/06/01 03:31:05;;;;;;;13.05;6.20;;;13.50;99.90;;;;;;5024846;28;20030;-75
2021/06/01 03:33:31;;;;;;;18.15;7.38;;;13.40;99.90;;;;;;5024807;28;20030;-72
2021/06/01 03:35:57;;;;;;;16.65;6.75;;;13.40;99.90;;;;;;5024903;28;20068;-73
2021/06/01 03:38:22;;;;;;;24.17;7.03;;;13.40;99.90;;;;;;5022995;28;20169;-72
2021/06/01 03:40:49;;;;;;;17.80;6.60;;;13.40;99.90;;;;;;5024545;28;20097;-71
2021/06/01 03:43:14;;;;;;;11.93;6.43;;;13.30;99.90;;;;;;5024520;28;20025;-72
2021/06/01 03:45:40;;;;;;;16.17;6.35;;;13.30;99.90;;;;;;5024738;28;20022;-72
2021/06/01 03:48:06;;;;;;;15.00;7.18;;;13.30;99.90;;;;;;5024479;28;20078;-72
2021/06/01 03:50:32;;;;;;;12.65;6.00;;;13.30;99.90;;;;;;5024740;28;20030;-72
2021/06/01 03:52:58;;;;;;;18.15;6.72;;;13.30;99.90;;;;;;5024781;28;20057;-72
2021/06/01 03:55:24;;;;;;;10.70;5.25;;;13.30;99.90;;;;;;5024011;28;20030;-72
2021/06/01 03:57:50;;;;;;;14.02;5.80;;;13.20;99.90;;;;;;5024594;28;20037;-71
2021/06/01 04:00:29;;;;;;;13.45;4.82;;;13.20;99.90;;;;;;5023153;28;20060;-73
2021/06/01 04:02:55;;;;;;;9.13;4.32;;;13.20;99.90;;;;;;5024129;28;20050;-73
2021/06/01 04:05:20;;;;;;;11.60;5.40;;;13.20;99.90;;;;;;5024427;28;20026;-72
2021/06/01 04:07:47;;;;;;;10.23;5.68;;;13.20;99.90;;;;;;5024385;28;20046;-72
2021/06/01 04:10:14;;;;;;;8.43;4.85;;;13.20;99.90;;;;;;5024025;28;20045;-72
2021/06/01 04:12:40;;;;;;;13.32;5.75;;;13.20;99.90;;;;;;5024555;28;20030;-72
2021/06/01 04:15:08;;;;;;;14.70;5.85;;;13.20;99.90;;;;;;5024473;28;20049;-72
2021/06/01 04:17:34;;;;;;;9.75;5.45;;;13.20;99.90;;;;;;5024265;28;20030;-73
2021/06/01 04:20:00;;;;;;;10.25;5.07;;;13.20;99.90;;;;;;5024528;28;20026;-73
2021/06/01 04:22:26;;;;;;;11.10;5.07;;;13.20;99.90;;;;;;5024230;28;20040;-71
2021/06/01 04:24:52;;;;;;;10.68;4.82;;;13.20;99.90;;;;;;5024117;28;20517;-72
2021/06/01 04:27:18;;;;;;;10.32;4.72;;;13.10;99.90;;;;;;5024271;28;20046;-71
2021/06/01 04:29:43;;;;;;;14.02;5.78;;;13.20;99.90;;;;;;5024290;28;20026;-72
2021/06/01 04:32:09;;;;;;;9.57;4.22;;;13.20;99.90;;;;;;5024488;28;20030;-71
2021/06/01 04:34:35;;;;;;;8.82;4.38;;;13.30;99.90;;;;;;5027097;28;20026;-71
2021/06/01 04:37:01;;;;;;;9.25;4.63;;;13.30;99.90;;;;;;5027453;28;20026;-72
2021/06/01 04:39:26;;;;;;;11.30;4.90;;;13.30;99.90;;;;;;5027354;28;20049;-70
2021/06/01 04:41:52;;;;;;;8.57;4.32;;;13.30;99.90;;;;;;5027589;28;20109;-71
2021/06/01 04:44:17;;;;;;;8.52;4.07;;;13.40;99.90;;;;;;5025782;28;20033;-71
2021/06/01 04:46:43;;;;;;;9.60;4.38;;;13.40;99.90;;;;;;5026268;28;20048;-72
2021/06/01 04:49:09;;;;;;;10.70;3.92;;;13.40;99.90;;;;;;5027813;28;20033;-74
2021/06/01 04:51:35;;;;;;;10.82;4.78;;;13.40;99.90;;;;;;5028354;28;20082;-72
2021/06/01 04:54:00;;;;;;;9.85;5.00;;;13.50;99.90;;;;;;5027862;28;20034;-73
2021/06/01 04:56:27;;;;;;;11.25;4.15;;;13.50;99.90;;;;;;5027327;28;20022;-72
2021/06/01 04:58:54;;;;;;;9.05;4.68;;;13.60;99.90;;;;;;5042648;28;20048;-72
2021/06/01 05:01:21;;;;;;;13.88;4.82;;;13.60;99.90;;;;;;5039607;28;20030;-71
2021/06/01 05:03:46;;;;;;;11.23;4.07;;;13.70;99.90;;;;;;5026952;28;20028;-73
2021/06/01 05:06:12;;;;;;;7.65;3.95;;;13.80;99.90;;;;;;5037902;28;20113;-73
2021/06/01 05:08:38;;;;;;;7.07;3.33;;;13.90;99.90;;;;;;5045677;28;20063;-73
2021/06/01 05:11:04;;;;;;;4.75;3.35;;;13.90;99.90;;;;;;5047156;28;20545;-72
2021/06/01 05:13:30;;;;;;;6.57;3.28;;;14.00;99.90;;;;;;5046780;28;20060;-72
2021/06/01 05:15:56;;;;;;;5.60;3.42;;;14.10;99.90;;;;;;5047033;28;20026;-72
2021/06/01 05:18:21;;;;;;;4.47;2.55;;;14.20;99.90;;;;;;5045659;28;20029;-70
2021/06/01 05:20:47;;;;;;;9.80;3.63;;;14.20;99.90;;;;;;5046485;28;20022;-71
2021/06/01 05:23:14;;;;;;;10.00;4.43;;;14.30;99.90;;;;;;5046803;28;20025;-71
2021/06/01 05:25:40;;;;;;;9.27;3.55;;;14.30;99.90;;;;;;5033122;28;20500;-71
2021/06/01 05:28:06;;;;;;;6.45;2.75;;;14.40;99.90;;;;;;5039399;28;20050;-71
2021/06/01 05:30:47;;;;;;;5.00;2.95;;;14.40;99.90;;;;;;5028646;28;20053;-70
2021/06/01 05:35:44;;;;;;;9.10;3.50;;;14.60;99.90;;;;;;5026688;28;20026;-70
2021/06/01 05:38:10;;;;;;;4.85;2.85;;;14.60;99.90;;;;;;5026112;28;20450;-69
2021/06/01 05:40:35;;;;;;;9.93;3.88;;;14.70;99.90;;;;;;5025937;28;20025;-70
2021/06/01 05:43:01;;;;;;;5.55;2.95;;;14.80;99.90;;;;;;5026022;28;20522;-69
2021/06/01 05:45:27;;;;;;;5.50;3.28;;;14.70;99.90;;;;;;5025843;28;20025;-71
2021/06/01 05:47:53;;;;;;;9.10;3.38;;;14.90;99.90;;;;;;5025832;28;20552;-71
2021/06/01 05:50:18;;;;;;;5.43;2.65;;;14.90;99.90;;;;;;5025103;28;20018;-70
2021/06/01 05:52:44;;;;;;;8.82;3.47;;;15.00;99.90;;;;;;5026586;28;20117;-72
2021/06/01 05:55:10;;;;;;;7.50;3.22;;;15.10;99.90;;;;;;5025876;28;20113;-71
2021/06/01 05:57:36;;;;;;;4.28;2.58;;;15.20;99.90;;;;;;5026484;28;20032;-73
2021/06/01 06:00:05;;;;;;;6.00;3.22;;;15.30;99.90;;;;;;5024848;28;20054;-70
2021/06/01 06:02:31;;;;;;;9.70;3.75;;;15.40;99.90;;;;;;5025939;28;20033;-70
2021/06/01 06:04:56;;;;;;;7.28;3.97;;;15.50;99.90;;;;;;5024842;28;20397;-72
2021/06/01 06:07:22;;;;;;;7.43;3.25;;;15.50;99.90;;;;;;5024715;28;20042;-71
2021/06/01 06:09:48;;;;;;;9.50;3.75;;;15.50;99.90;;;;;;5025772;28;20037;-70
2021/06/01 06:12:13;;;;;;;12.77;3.22;;;15.60;99.90;;;;;;5024798;28;20029;-70
2021/06/01 06:14:39;;;;;;;7.38;3.05;;;15.60;99.90;;;;;;5026000;28;20026;-71
2021/06/01 06:17:22;;;;;;;5.30;3.13;;;15.70;99.90;;;;;;5025647;28;20030;-71
2021/06/01 06:19:48;;;;;;;6.40;3.65;;;15.70;99.90;;;;;;5025871;28;20056;-70
2021/06/01 06:22:14;;;;;;;6.30;3.30;;;15.80;99.90;;;;;;5025495;28;20022;-70
2021/06/01 06:24:39;;;;;;;6.82;3.08;;;15.90;99.90;;;;;;5025174;28;20021;-70
2021/06/01 06:27:05;;;;;;;8.20;2.85;;;16.10;99.90;;;;;;5029652;28;20095;-70
2021/06/01 06:29:31;;;;;;;3.83;2.78;;;16.10;99.90;;;;;;5035545;28;20025;-70
2021/06/01 06:31:56;;;;;;;7.50;4.05;;;16.20;99.90;;;;;;5045088;28;20024;-70
2021/06/01 06:34:22;;;;;;;8.13;3.22;;;16.30;99.90;;;;;;5040486;28;20037;-70
2021/06/01 06:36:47;;;;;;;7.25;3.53;;;16.40;99.90;;;;;;5023800;28;20037;-70
2021/06/01 06:39:13;;;;;;;12.20;3.47;;;16.50;99.90;;;;;;5025080;28;20054;-71
2021/06/01 06:41:39;;;;;;;8.65;3.45;;;16.60;99.90;;;;;;5025884;28;20030;-73
2021/06/01 06:44:08;;;;;;;5.50;2.92;;;16.70;99.90;;;;;;5025449;28;20029;-72
2021/06/01 06:46:41;;;;;;;7.47;3.30;;;16.70;99.90;;;;;;5025253;28;20034;-71
2021/06/01 06:49:08;;;;;;;5.35;3.17;;;16.80;99.90;;;;;;5025401;28;20030;-72
2021/06/01 06:51:39;;;;;;;5.70;2.80;;;16.90;99.90;;;;;;5024905;28;20038;-71
2021/06/01 06:54:05;;;;;;;4.43;2.80;;;16.90;99.90;;;;;;5024956;28;20038;-72
2021/06/01 06:56:31;;;;;;;7.28;3.10;;;17.00;99.90;;;;;;5025042;28;20389;-72
2021/06/01 06:58:58;;;;;;;11.40;2.70;;;17.00;99.90;;;;;;5024834;28;20534;-70
2021/06/01 07:01:24;;;;;;;5.72;3.13;;;17.10;99.90;;;;;;5025364;28;20085;-69
2021/06/01 07:03:50;;;;;;;3.97;2.47;;;17.10;99.90;;;;;;5024381;28;20048;-72
2021/06/01 07:06:16;;;;;;;12.73;4.63;;;17.20;99.90;;;;;;5024762;28;20093;-70
2021/06/01 07:08:42;;;;;;;7.30;3.17;;;17.30;99.90;;;;;;5025120;28;20036;-70
2021/06/01 07:11:09;;;;;;;4.85;2.90;;;17.30;99.90;;;;;;5024584;28;20033;-69
2021/06/01 07:13:40;;;;;;;9.30;3.60;;;17.30;99.90;;;;;;5025067;28;20107;-71
2021/06/01 07:16:06;;;;;;;5.05;3.47;;;17.30;99.90;;;;;;5024971;28;20089;-73
2021/06/01 07:18:35;;;;;;;6.80;3.70;;;17.40;99.90;;;;;;5023064;28;20037;-70
2021/06/01 07:21:01;;;;;;;5.65;3.33;;;17.50;99.90;;;;;;5025196;28;20052;-70
2021/06/01 07:23:28;;;;;;;5.78;3.13;;;17.60;99.90;;;;;;5025514;28;20031;-70
2021/06/01 07:25:54;;;;;;;10.80;3.40;;;17.70;99.90;;;;;;5040364;28;20045;-68
2021/06/01 07:28:19;;;;;;;2.92;2.15;;;17.70;99.90;;;;;;5037423;28;20025;-69
2021/06/01 07:30:45;;;;;;;5.82;2.90;;;17.80;99.90;;;;;;5032802;28;20057;-69
2021/06/01 07:33:11;;;;;;;8.80;3.45;;;17.80;99.90;;;;;;5024494;28;20034;-70
2021/06/01 07:35:36;;;;;;;7.32;2.97;;;17.90;99.90;;;;;;5024837;28;20037;-72
2021/06/01 07:38:02;;;;;;;5.72;2.97;;;18.00;99.90;;;;;;5026744;28;20154;-71
2021/06/01 07:40:28;;;;;;;4.90;2.92;;;18.00;99.90;;;;;;5034269;28;20498;-71
2021/06/01 07:42:54;;;;;;;5.15;3.25;;;18.10;99.90;;;;;;5024634;28;20029;-72
2021/06/01 07:45:19;;;;;;;5.55;2.78;;;18.20;99.90;;;;;;5026296;28;20026;-71
2021/06/01 07:47:45;;;;;;;4.38;2.70;;;18.20;99.90;;;;;;5033464;28;20049;-71
2021/06/01 07:50:11;;;;;;;4.43;3.22;;;18.40;99.90;;;;;;5027195;28;20030;-70
2021/06/01 07:52:37;;;;;;;10.88;3.17;;;18.40;99.90;;;;;;5024204;28;20026;-71
2021/06/01 07:55:06;;;;;;;4.72;2.58;;;18.50;99.90;;;;;;5024690;28;20081;-70
2021/06/01 07:57:31;;;;;;;3.38;2.13;;;18.50;99.90;;;;;;5024805;28;20163;-69
2021/06/01 07:59:57;;;;;;;3.95;2.08;;;18.60;99.90;;;;;;5031573;28;20068;-72
2021/06/01 08:02:24;;;;;;;7.88;3.25;;;18.70;99.90;;;;;;5032963;28;20030;-70
2021/06/01 08:04:54;;;;;;;5.43;3.17;;;18.80;99.90;;;;;;5025662;28;20100;-70
2021/06/01 08:07:20;;;;;;;11.55;3.08;;;19.00;99.90;;;;;;5030631;28;20034;-70
2021/06/01 08:09:46;;;;;;;4.18;2.58;;;19.10;99.90;;;;;;5038183;28;20029;-69
2021/06/01 08:12:12;;;;;;;6.72;2.63;;;19.20;99.90;;;;;;5027344;28;20100;-71
2021/06/01 08:14:37;;;;;;;7.93;2.58;;;19.30;99.90;;;;;;5027427;28;20441;-70
2021/06/01 08:17:04;;;;;;;5.13;2.20;;;19.40;99.90;;;;;;5028246;28;20093;-71
2021/06/01 08:19:36;;;;;;;4.88;2.70;;;19.50;99.90;;;;;;5027686;28;20026;-70
2021/06/01 08:24:36;;;;;;;3.60;2.13;;;19.70;99.90;;;;;;5027888;28;20040;-72
2021/06/01 08:27:02;;;;;;;6.28;2.40;;;19.80;99.90;;;;;;5027874;28;20050;-70
2021/06/01 08:29:35;;;;;;;6.78;2.72;;;19.90;99.90;;;;;;5027840;28;20160;-71
2021/06/01 08:32:00;;;;;;;5.70;2.60;;;20.00;99.90;;;;;;5026274;28;20026;-70
2021/06/01 08:34:26;;;;;;;3.97;2.47;;;20.10;99.90;;;;;;5014708;28;20042;-71
2021/06/01 08:36:53;;;;;;;5.05;2.78;;;20.20;99.90;;;;;;5007998;28;20430;-72
2021/06/01 08:39:24;;;;;;;5.45;2.90;;;20.30;99.90;;;;;;5007056;28;20049;-72
2021/06/01 08:41:50;;;;;;;4.75;2.55;;;20.40;99.90;;;;;;5008172;28;20412;-70
2021/06/01 08:44:17;;;;;;;3.72;2.15;;;20.60;99.90;;;;;;5008072;28;20037;-70
2021/06/01 08:46:45;;;;;;;4.85;2.63;;;20.70;99.90;;;;;;5016831;28;20042;-69
2021/06/01 08:49:14;;;;;;;4.35;2.03;;;20.90;99.90;;;;;;5027140;28;20081;-70
2021/06/01 08:51:41;;;;;;;5.95;2.30;;;20.90;99.90;;;;;;5038941;28;20033;-70
2021/06/01 08:54:07;;;;;;;4.93;2.85;;;21.10;99.90;;;;;;5039885;28;20623;-72
2021/06/01 08:56:32;;;;;;;5.93;2.42;;;21.20;99.90;;;;;;5032229;28;20080;-72
2021/06/01 08:58:58;;;;;;;4.38;2.75;;;21.30;99.90;;;;;;5031775;28;20034;-71
2021/06/01 09:01:24;;;;;;;4.20;2.20;;;21.30;99.90;;;;;;5039260;28;20030;-71
2021/06/01 09:03:55;;;;;;;3.95;2.03;;;21.30;99.90;;;;;;5047149;28;20018;-70
2021/06/01 09:06:33;;;;;;;7.93;3.10;;;21.40;99.90;;;;;;5046751;28;20064;-70
2021/06/01 09:14:57;;;;;;;4.22;2.25;;;21.80;99.90;;;;;;5007184;28;20070;-72
2021/06/01 09:23:04;;;;;;;5.57;2.78;;;22.00;99.90;;;;;;5007210;28;20177;-72
2021/06/01 09:28:11;;;;;;;4.90;1.77;;;22.30;99.90;;;;;;5007229;28;20045;-70
2021/06/01 09:30:39;;;;;;;4.07;2.53;;;22.40;99.90;;;;;;5007155;28;20111;-69
2021/06/01 09:33:08;;;;;;;4.32;2.63;;;22.60;99.90;;;;;;5007529;28;20022;-70
2021/06/01 09:35:48;;;;;;;3.22;2.10;;;22.70;99.90;;;;;;5006486;28;20022;-69
2021/06/01 09:38:14;;;;;;;6.53;2.72;;;22.80;99.90;;;;;;5006473;28;20038;-68
2021/06/01 09:40:41;;;;;;;12.65;2.58;;;22.70;99.90;;;;;;5012346;28;20026;-70
2021/06/01 09:43:13;;;;;;;3.38;1.95;;;22.80;99.90;;;;;;5036929;28;20025;-67
2021/06/01 09:45:42;;;;;;;1.73;1.30;;;23.00;99.90;;;;;;5034446;28;20030;-70
2021/06/01 09:48:09;;;;;;;3.33;1.98;;;23.10;99.90;;;;;;5025613;28;20040;-71
2021/06/01 09:53:10;;;;;;;3.42;2.10;;;23.40;99.90;;;;;;5026527;28;20041;-72
2021/06/01 09:55:47;;;;;;;4.93;2.17;;;23.50;99.90;;;;;;5026240;28;20049;-70
2021/06/01 09:58:16;;;;;;;2.10;1.40;;;23.40;99.90;;;;;;5025930;28;20544;-70
2021/06/01 10:00:44;;;;;;;3.92;2.33;;;23.40;99.90;;;;;;5026128;28;20049;-69
2021/06/01 10:03:18;;;;;;;3.78;2.08;;;23.30;99.90;;;;;;5024774;28;20033;-69
2021/06/01 10:05:45;;;;;;;4.53;1.80;;;23.30;99.90;;;;;;5025948;28;20026;-69
2021/06/01 10:08:22;;;;;;;5.68;1.90;;;23.30;99.90;;;;;;5026204;28;20065;-69
2021/06/01 10:10:57;;;;;;;10.85;2.13;;;23.40;99.90;;;;;;5025525;28;20486;-69
2021/06/01 10:13:24;;;;;;;8.88;2.17;;;23.40;99.90;;;;;;5025981;28;20018;-68
2021/06/01 10:15:52;;;;;;;2.72;1.63;;;23.40;99.90;;;;;;5025900;28;20091;-69
2021/06/01 10:18:19;;;;;;;2.25;1.60;;;23.50;99.90;;;;;;5025747;28;20041;-70
2021/06/01 10:20:46;;;;;;;6.22;1.98;;;23.60;99.90;;;;;;5025837;28;20379;-70
2021/06/01 10:23:13;;;;;;;11.07;1.65;;;23.80;99.90;;;;;;5025970;28;20033;-69
2021/06/01 10:25:40;;;;;;;5.45;1.90;;;24.10;99.90;;;;;;5025291;28;20041;-71
2021/06/01 10:28:09;;;;;;;5.43;2.30;;;24.30;99.90;;;;;;5025764;28;20064;-69
2021/06/01 10:30:40;;;;;;;4.78;2.10;;;24.50;99.90;;;;;;5025078;28;20081;-70
2021/06/01 10:33:13;;;;;;;3.30;1.98;;;24.60;99.90;;;;;;5025522;28;20034;-69
2021/06/01 10:35:44;;;;;;;7.13;1.73;;;24.80;99.90;;;;;;5025913;28;20038;-72
2021/06/01 10:52:13;;;;;;;3.90;1.60;;;25.20;99.90;;;;;;5024800;28;20026;-69
2021/06/01 10:54:41;;;;;;;3.78;1.70;;;25.40;99.90;;;;;;5024355;28;20089;-71
2021/06/01 10:57:07;;;;;;;3.65;1.63;;;25.50;99.90;;;;;;5024665;28;20144;-69
2021/06/01 11:01:50;;;;;;;3.15;1.88;;;25.70;99.90;;;;;;5024617;28;20470;-68
2021/06/01 11:02:37;;;;;;;2.58;1.42;;;25.90;99.90;;;;;;5016961;28;20056;-70
2021/06/01 11:05:17;;;;;;;2.17;1.40;;;26.10;99.90;;;;;;5023290;28;20034;-70
2021/06/01 11:07:52;;;;;;;9.20;1.85;;;26.30;99.90;;;;;;5024765;28;20084;-69
2021/06/01 11:10:41;;;;;;;1.85;1.23;;;26.50;99.90;;;;;;5023288;28;20025;-70
2021/06/01 11:13:30;;;;;;;3.45;1.48;;;26.70;99.90;;;;;;5024023;28;20033;-72
2021/06/01 11:16:00;;;;;;;3.83;1.63;;;26.70;99.90;;;;;;5024181;28;20042;-71
2021/06/01 11:35:19;;;;;;;2.08;1.45;;;27.60;99.90;;;;;;5029640;28;20041;-70
2021/06/01 11:37:59;;;;;;;1.95;1.58;;;27.80;99.90;;;;;;5040273;28;20040;-69
2021/06/01 11:40:38;;;;;;;2.03;1.27;;;28.00;99.90;;;;;;5042747;28;20127;-68
2021/06/01 11:43:10;;;;;;;2.95;1.42;;;28.10;99.90;;;;;;5044209;28;20388;-70
2021/06/01 11:51:21;;;;;;;4.22;1.80;;;28.60;99.90;;;;;;5035817;28;20034;-72
2021/06/01 11:54:15;;;;;;;6.72;1.27;;;28.80;99.30;;;;;;5028863;28;20046;-72
2021/06/01 12:13:13;;;;;;;2.47;1.42;;;29.30;99.60;;;;;;5028127;28;20041;-68
2021/06/01 12:18:36;;;;;;;1.85;1.25;;;29.90;98.70;;;;;;5027303;28;20122;-69
2021/06/01 12:21:03;;;;;;;2.70;1.10;;;30.10;98.70;;;;;;5028231;28;20017;-73
2021/06/01 12:23:39;;;;;;;1.83;1.35;;;30.20;96.90;;;;;;5028041;28;20410;-72
2021/06/01 12:26:33;;;;;;;2.35;1.65;;;30.30;93.30;;;;;;5026337;28;20038;-73
2021/06/01 12:32:18;;;;;;;3.30;1.65;;;30.40;94.70;;;;;;5027743;28;20080;-71
2021/06/01 12:43:06;;;;;;;2.83;1.27;;;30.80;93.80;;;;;;5037192;28;20040;-71
2021/06/01 13:06:35;;;;;;;2.15;1.40;;;31.10;92.30;;;;;;5047236;28;20052;-73
2021/06/01 13:19:50;;;;;;;6.97;1.88;;;31.20;91.00;;;;;;5046688;28;20088;-71
2021/06/01 13:36:29;;;;;;;3.58;1.70;;;31.40;88.40;;;;;;5046980;28;20033;-70
2021/06/01 13:46:44;;;;;;;3.38;1.60;;;30.60;86.80;;;;;;5026422;28;20048;-71
2021/06/01 13:49:21;;;;;;;3.17;1.55;;;30.40;87.60;;;;;;5026302;28;20044;-72
2021/06/01 13:52:00;;;;;;;3.20;1.48;;;30.40;86.40;;;;;;5026211;28;20045;-69
2021/06/01 14:54:36;;;;;;;9.70;1.77;;;29.60;84.10;;;;;;5025508;28;20048;-69
2021/06/01 15:07:27;;;;;;;1.60;1.30;;;29.50;85.00;;;;;;5024910;28;20056;-70
2021/06/01 15:24:42;;;;;;;3.92;1.50;;;30.60;84.90;;;;;;5024614;28;20244;-69
2021/06/01 16:23:53;;;;;;;4.45;1.33;;;27.70;87.40;;;;;;5024012;28;20083;-70
2021/06/01 16:32:01;;;;;;;;;;;27.50;86.00;;;;;;5028346;28;20071;-68
2021/06/01 17:07:37;;;;;;;3.40;1.90;;;26.10;93.00;;;;;;5008017;28;19977;-69
2021/06/01 17:12:48;;;;;;;4.75;1.98;;;26.20;93.20;;;;;;5007661;28;20036;-68
2021/06/01 17:15:17;;;;;;;3.25;1.73;;;26.40;93.30;;;;;;5007250;28;20025;-68
2021/06/01 17:17:47;;;;;;;3.13;1.80;;;26.50;93.10;;;;;;5007335;28;20030;-69
2021/06/01 17:31:06;;;;;;;4.53;1.63;;;27.10;92.20;;;;;;5007214;28;19929;-69
2021/06/01 17:36:18;;;;;;;6.22;2.20;;;26.80;92.60;;;;;;5007109;28;20044;-69
2021/06/01 17:38:43;;;;;;;2.30;1.17;;;26.50;92.90;;;;;;5006558;28;20074;-70
2021/06/01 17:41:14;;;;;;;1.63;1.13;;;26.20;93.00;;;;;;5005724;28;20045;-69
2021/06/01 17:43:42;;;;;;;5.82;2.05;;;26.00;93.20;;;;;;5007076;28;20027;-69
2021/06/01 17:46:12;;;;;;;3.70;2.28;;;25.60;93.30;;;;;;5006670;28;20368;-70
2021/06/01 17:48:48;;;;;;;2.40;1.35;;;25.40;93.60;;;;;;5007082;28;20030;-68
2021/06/01 17:51:16;;;;;;;3.13;1.67;;;25.20;93.90;;;;;;5006773;28;20049;-70
2021/06/01 17:53:48;;;;;;;2.28;1.65;;;25.00;94.30;;;;;;5007127;28;20026;-70
2021/06/01 17:56:17;;;;;;;3.20;1.70;;;24.80;94.60;;;;;;5006327;28;20030;-68
2021/06/01 17:58:43;;;;;;;3.17;2.10;;;24.70;94.70;;;;;;5007510;28;20030;-69
2021/06/01 18:01:09;;;;;;;2.60;1.83;;;24.50;95.00;;;;;;5006999;28;20411;-69
2021/06/01 18:03:43;;;;;;;4.65;2.05;;;24.40;95.20;;;;;;5006486;28;20034;-70
2021/06/01 18:06:11;;;;;;;2.55;1.60;;;24.20;95.30;;;;;;5006688;28;20022;-69
2021/06/01 18:09:04;;;;;;;1.23;1.10;;;24.00;95.80;;;;;;5006604;28;20082;-70
2021/06/01 19:01:06;;;;;;;5.97;1.80;;;21.70;99.90;;;;;;5004782;28;20045;-70
2021/06/01 19:49:55;;;;;;;2.65;1.77;;;20.70;99.90;;;;;;5003627;28;20089;-70
2021/06/01 19:50:24;;;;;;;5.05;2.25;;;20.70;99.90;;;;;;4991633;28;20049;-71
2021/06/01 19:52:53;;;;;;;3.58;2.30;;;20.60;99.90;;;;;;5003926;28;20041;-73
2021/06/01 19:55:21;;;;;;;6.78;2.33;;;20.60;99.90;;;;;;5003468;28;20027;-71
2021/06/01 19:57:49;;;;;;;3.08;1.65;;;20.50;99.90;;;;;;5003766;28;20090;-72
2021/06/01 20:00:16;;;;;;;3.05;1.77;;;20.40;99.90;;;;;;5003452;28;20125;-71
2021/06/01 20:02:42;;;;;;;5.18;2.53;;;20.30;99.90;;;;;;5003934;28;20701;-72
2021/06/01 20:05:10;;;;;;;3.00;1.70;;;20.30;99.90;;;;;;5005370;28;20146;-72
2021/06/01 20:07:37;;;;;;;4.97;2.33;;;20.20;99.90;;;;;;5007123;28;20046;-72
2021/06/01 20:10:06;;;;;;;5.45;1.63;;;20.10;99.90;;;;;;5008134;28;20036;-72
2021/06/01 20:12:32;;;;;;;4.90;2.25;;;20.10;99.90;;;;;;5008585;28;20034;-71